Time;durP1;ratioP1;P1;durP2;ratioP2;P2;SDS_P1;SDS_P2;PMS_P1;PMS_P2;Temp;Humidity;BMP_temperature;BMP_pressure;BME280_temperature;BME280_humidity;BME280_pressure;Samples;Min_cycle;Max_cycle;Signal;HPM_P1;HPM_P2
2020/12/19 00:01:11;;;;;;;28.42;19.52;;;3.60;99.90;;;;;;5033143;28;20052;-67
2020/12/19 00:03:37;;;;;;;28.30;19.08;;;3.70;99.90;;;;;;5033696;28;20134;-67
2020/12/19 00:06:07;;;;;;;31.35;19.88;;;3.70;99.90;;;;;;5035862;28;20025;-67
2020/12/19 00:08:33;;;;;;;26.88;18.63;;;3.60;99.90;;;;;;5035645;28;20014;-66
2020/12/19 00:10:58;;;;;;;29.33;21.33;;;3.60;99.90;;;;;;5034770;28;20353;-67
2020/12/19 00:13:24;;;;;;;31.92;21.17;;;3.60;99.90;;;;;;5033784;28;20022;-67
2020/12/19 00:15:49;;;;;;;27.52;19.77;;;3.60;99.90;;;;;;5034299;28;20086;-67
2020/12/19 00:18:15;;;;;;;30.88;21.88;;;3.60;99.90;;;;;;5034328;28;20107;-67
2020/12/19 00:20:41;;;;;;;29.85;20.17;;;3.50;99.90;;;;;;5032678;28;20399;-67
2020/12/19 00:23:06;;;;;;;25.73;17.38;;;3.30;99.90;;;;;;5033717;28;20030;-67
2020/12/19 00:25:32;;;;;;;32.05;20.85;;;3.20;99.90;;;;;;5034307;28;20410;-67
2020/12/19 00:27:58;;;;;;;28.08;19.35;;;3.30;99.90;;;;;;5034306;28;20475;-67
2020/12/19 00:30:23;;;;;;;30.55;20.80;;;3.10;99.90;;;;;;5034105;28;20021;-68
2020/12/19 00:32:49;;;;;;;32.13;20.90;;;3.10;99.90;;;;;;5033439;28;20502;-67
2020/12/19 00:35:14;;;;;;;37.38;24.38;;;3.00;99.90;;;;;;5033752;28;20507;-67
2020/12/19 00:37:41;;;;;;;36.38;24.42;;;3.00;99.90;;;;;;5032924;28;20041;-68
2020/12/19 00:40:08;;;;;;;38.13;26.60;;;3.00;99.90;;;;;;5033956;28;20098;-68
2020/12/19 00:42:36;;;;;;;41.58;26.83;;;3.00;99.90;;;;;;5033839;28;20033;-68
2020/12/19 00:45:03;;;;;;;39.40;27.25;;;3.00;99.90;;;;;;5032584;28;20013;-68
2020/12/19 00:47:29;;;;;;;37.80;22.77;;;3.00;99.90;;;;;;5032711;28;20025;-68
2020/12/19 00:49:54;;;;;;;35.17;21.52;;;3.00;99.90;;;;;;5033703;28;20021;-68
2020/12/19 00:52:20;;;;;;;30.80;19.23;;;3.00;99.90;;;;;;5032317;28;20026;-68
2020/12/19 00:54:46;;;;;;;26.60;18.23;;;3.00;99.90;;;;;;5032900;28;20033;-68
2020/12/19 00:57:11;;;;;;;25.65;18.10;;;2.90;99.90;;;;;;5033894;28;20029;-68
2020/12/19 00:59:37;;;;;;;26.00;17.40;;;3.00;99.90;;;;;;5033509;28;20022;-68
2020/12/19 01:02:03;;;;;;;25.35;17.63;;;3.00;99.90;;;;;;5033574;28;20021;-68
2020/12/19 01:04:29;;;;;;;29.42;18.67;;;2.90;99.90;;;;;;5032544;28;20494;-68
2020/12/19 01:06:54;;;;;;;27.58;18.85;;;2.90;99.90;;;;;;5033528;28;20051;-68
2020/12/19 01:09:22;;;;;;;37.90;17.98;;;2.90;99.90;;;;;;5033439;28;20021;-68
2020/12/19 01:11:47;;;;;;;28.63;18.30;;;3.00;99.90;;;;;;5033359;28;20373;-67
2020/12/19 01:14:13;;;;;;;29.50;17.85;;;2.90;99.90;;;;;;5032279;28;20185;-68
2020/12/19 01:16:39;;;;;;;27.85;18.23;;;2.90;99.90;;;;;;5033395;28;20031;-67
2020/12/19 01:19:04;;;;;;;28.17;18.17;;;2.90;99.90;;;;;;5033173;28;20067;-67
2020/12/19 01:21:31;;;;;;;26.83;18.08;;;2.90;99.90;;;;;;5033218;28;20037;-68
2020/12/19 01:23:57;;;;;;;33.17;19.60;;;2.90;99.90;;;;;;5032270;28;20072;-68
2020/12/19 01:26:23;;;;;;;30.05;19.13;;;2.90;99.90;;;;;;5031832;28;20454;-67
2020/12/19 01:28:50;;;;;;;31.13;19.98;;;3.00;99.90;;;;;;5032948;28;20101;-67
2020/12/19 01:31:17;;;;;;;28.42;19.20;;;2.90;99.90;;;;;;5033073;28;20045;-67
2020/12/19 01:33:43;;;;;;;32.67;19.52;;;3.00;99.90;;;;;;5032236;28;20029;-67
2020/12/19 01:36:13;;;;;;;30.88;18.15;;;2.90;99.90;;;;;;5032659;28;20501;-68
2020/12/19 01:38:39;;;;;;;32.45;18.98;;;2.90;99.90;;;;;;5032831;28;20030;-67
2020/12/19 01:41:05;;;;;;;26.60;18.73;;;2.80;99.90;;;;;;5032832;28;20022;-68
2020/12/19 01:43:51;;;;;;;30.48;18.30;;;2.80;99.90;;;;;;5031922;28;20021;-68
2020/12/19 01:46:49;;;;;;;29.55;18.83;;;2.70;99.90;;;;;;5038156;28;20095;-68
2020/12/19 01:49:14;;;;;;;30.05;19.48;;;2.70;99.90;;;;;;5034965;28;20038;-67
2020/12/19 01:51:41;;;;;;;30.98;18.63;;;2.60;99.90;;;;;;5038478;28;20035;-67
2020/12/19 01:54:08;;;;;;;26.40;18.38;;;2.60;99.90;;;;;;5037142;28;20026;-67
2020/12/19 01:56:39;;;;;;;24.17;17.45;;;2.50;99.90;;;;;;5038386;28;20487;-67
2020/12/19 01:59:05;;;;;;;27.63;18.17;;;2.50;99.90;;;;;;5037926;28;20480;-68
2020/12/19 02:01:32;;;;;;;30.45;19.88;;;2.50;99.90;;;;;;5034392;28;20075;-68
2020/12/19 02:03:57;;;;;;;27.42;17.75;;;2.40;99.90;;;;;;5031550;28;20087;-68
2020/12/19 02:06:25;;;;;;;31.70;18.77;;;2.40;99.90;;;;;;5032599;28;20025;-68
2020/12/19 02:08:54;;;;;;;32.95;20.95;;;2.40;99.90;;;;;;5032605;28;20032;-67
2020/12/19 02:11:21;;;;;;;28.92;19.20;;;2.30;99.90;;;;;;5032449;28;20039;-67
2020/12/19 02:13:47;;;;;;;24.60;17.48;;;2.30;99.90;;;;;;5031650;28;20035;-68
2020/12/19 02:16:17;;;;;;;29.05;17.92;;;2.20;99.90;;;;;;5032381;28;20017;-68
2020/12/19 02:18:43;;;;;;;26.63;18.88;;;2.20;99.90;;;;;;5032068;28;20018;-68
2020/12/19 02:21:09;;;;;;;25.77;17.17;;;2.10;99.90;;;;;;5031979;28;20026;-68
2020/12/19 02:23:35;;;;;;;30.30;19.30;;;2.00;99.90;;;;;;5031482;28;20044;-68
2020/12/19 02:26:00;;;;;;;29.27;18.67;;;2.10;99.90;;;;;;5030842;28;20662;-68
2020/12/19 02:28:26;;;;;;;32.10;20.17;;;2.00;99.90;;;;;;5032118;28;20033;-68
2020/12/19 02:30:52;;;;;;;28.88;19.50;;;2.00;99.90;;;;;;5031807;28;20064;-68
2020/12/19 02:33:17;;;;;;;34.08;21.13;;;2.00;99.90;;;;;;5030912;28;20021;-69
2020/12/19 02:35:43;;;;;;;36.75;24.80;;;2.00;99.90;;;;;;5031562;28;20520;-68
2020/12/19 02:38:09;;;;;;;45.72;28.30;;;2.10;99.90;;;;;;5031862;28;20653;-68
2020/12/19 02:40:34;;;;;;;43.65;29.52;;;2.20;99.90;;;;;;5031894;28;20022;-68
2020/12/19 02:43:00;;;;;;;43.42;28.95;;;2.20;99.90;;;;;;5030929;28;20025;-69
2020/12/19 02:45:25;;;;;;;62.55;32.65;;;2.20;99.90;;;;;;5031624;28;20080;-68
2020/12/19 02:47:51;;;;;;;43.35;28.65;;;2.20;99.90;;;;;;5031734;28;20036;-68
2020/12/19 02:50:17;;;;;;;44.67;26.50;;;2.20;99.90;;;;;;5031436;28;20067;-68
2020/12/19 02:52:42;;;;;;;40.50;24.67;;;2.10;99.90;;;;;;5030931;28;20029;-68
2020/12/19 02:55:08;;;;;;;42.22;23.92;;;2.10;99.90;;;;;;5031422;28;20100;-70
2020/12/19 02:57:33;;;;;;;41.45;25.10;;;2.20;99.90;;;;;;5031731;28;20017;-69
2020/12/19 02:59:59;;;;;;;42.35;25.13;;;2.10;99.90;;;;;;5031608;28;20029;-69
2020/12/19 03:02:25;;;;;;;44.10;24.05;;;2.10;99.90;;;;;;5031501;28;20038;-69
2020/12/19 03:04:50;;;;;;;36.58;23.00;;;2.10;99.90;;;;;;5030377;28;20044;-68
2020/12/19 03:07:16;;;;;;;38.40;22.45;;;2.10;99.90;;;;;;5032108;28;20557;-68
2020/12/19 03:09:42;;;;;;;33.55;22.02;;;2.10;99.90;;;;;;5052807;22;20063;-72
2020/12/19 03:12:07;;;;;;;35.75;22.45;;;2.00;99.90;;;;;;5049534;28;20060;-72
2020/12/19 03:14:33;;;;;;;36.97;22.25;;;2.10;99.90;;;;;;5056647;28;20363;-72
2020/12/19 03:16:58;;;;;;;39.60;22.77;;;2.00;99.90;;;;;;5057531;28;20498;-73
2020/12/19 03:19:24;;;;;;;36.78;22.35;;;2.00;99.90;;;;;;5056523;28;20028;-72
2020/12/19 03:21:50;;;;;;;37.88;22.40;;;2.00;99.90;;;;;;5038085;28;20041;-72
2020/12/19 03:24:15;;;;;;;36.97;22.60;;;2.00;99.90;;;;;;5035986;28;20033;-73
2020/12/19 03:26:41;;;;;;;30.63;21.15;;;1.90;99.90;;;;;;5036586;28;20029;-72
2020/12/19 03:29:07;;;;;;;31.50;19.55;;;1.90;99.90;;;;;;5037905;28;20100;-72
2020/12/19 03:31:32;;;;;;;29.75;19.35;;;1.90;99.90;;;;;;5037792;28;20048;-71
2020/12/19 03:33:58;;;;;;;33.33;20.42;;;1.80;99.90;;;;;;5036858;28;20041;-73
2020/12/19 03:36:23;;;;;;;31.80;19.08;;;1.80;99.90;;;;;;5037985;28;20026;-72
2020/12/19 03:38:49;;;;;;;25.77;18.38;;;1.80;99.90;;;;;;5038060;28;20430;-72
2020/12/19 03:41:15;;;;;;;31.50;18.88;;;1.70;99.90;;;;;;5037644;28;20468;-72
2020/12/19 03:43:40;;;;;;;37.28;19.58;;;1.70;99.90;;;;;;5037064;28;20372;-72
2020/12/19 03:46:06;;;;;;;34.90;21.02;;;1.60;99.90;;;;;;5037783;28;20167;-72
2020/12/19 03:48:32;;;;;;;30.33;20.20;;;1.60;99.90;;;;;;5037599;28;20029;-72
2020/12/19 03:50:58;;;;;;;33.85;21.20;;;1.60;99.90;;;;;;5037718;28;20566;-72
2020/12/19 03:53:23;;;;;;;30.10;20.63;;;1.60;99.90;;;;;;5037062;28;20032;-72
2020/12/19 03:55:49;;;;;;;33.22;22.60;;;1.60;99.90;;;;;;5037660;28;20101;-71
2020/12/19 03:58:15;;;;;;;43.03;26.08;;;1.60;99.90;;;;;;5037895;28;20025;-71
2020/12/19 04:00:41;;;;;;;38.30;25.52;;;1.60;99.90;;;;;;5037914;28;20021;-72
2020/12/19 04:03:06;;;;;;;39.30;25.48;;;1.50;99.90;;;;;;5035665;28;20061;-72
2020/12/19 04:05:32;;;;;;;47.30;26.42;;;1.60;99.90;;;;;;5037803;28;20033;-72
2020/12/19 04:07:57;;;;;;;42.22;25.27;;;1.60;99.90;;;;;;5036752;28;20028;-72
2020/12/19 04:10:23;;;;;;;36.55;24.27;;;1.50;99.90;;;;;;5037620;28;20029;-72
2020/12/19 04:12:49;;;;;;;33.28;21.63;;;1.50;99.90;;;;;;5035911;28;20033;-71
2020/12/19 04:15:14;;;;;;;37.38;22.35;;;1.50;99.90;;;;;;5037915;28;20021;-72
2020/12/19 04:17:40;;;;;;;37.95;21.60;;;1.50;99.90;;;;;;5038067;28;20056;-72
2020/12/19 04:20:08;;;;;;;37.72;20.20;;;1.50;99.90;;;;;;5034131;28;20021;-71
2020/12/19 04:22:34;;;;;;;36.15;20.40;;;1.40;99.90;;;;;;5033084;28;20026;-72
2020/12/19 04:25:00;;;;;;;34.92;20.65;;;1.50;99.90;;;;;;5033684;28;20029;-72
2020/12/19 04:27:25;;;;;;;35.92;21.38;;;1.50;99.90;;;;;;5034529;28;20029;-72
2020/12/19 04:29:51;;;;;;;37.15;20.52;;;1.40;99.90;;;;;;5032971;28;20539;-73
2020/12/19 04:32:17;;;;;;;37.30;20.70;;;1.50;99.90;;;;;;5034234;28;20487;-72
2020/12/19 04:34:42;;;;;;;36.83;20.70;;;1.50;99.90;;;;;;5033576;28;20028;-72
2020/12/19 04:37:08;;;;;;;31.92;19.33;;;1.40;99.90;;;;;;5034287;28;20021;-73
2020/12/19 04:39:34;;;;;;;34.88;20.27;;;1.50;99.90;;;;;;5033491;28;20029;-72
2020/12/19 04:42:00;;;;;;;37.88;20.15;;;1.50;99.90;;;;;;5014135;28;20056;-72
2020/12/19 04:44:26;;;;;;;32.95;20.30;;;1.50;99.90;;;;;;5013558;28;20064;-73
2020/12/19 04:46:52;;;;;;;32.67;20.48;;;1.40;99.90;;;;;;5014280;28;20056;-72
2020/12/19 04:49:18;;;;;;;35.60;21.17;;;1.40;99.90;;;;;;5014192;28;20037;-72
2020/12/19 04:51:44;;;;;;;32.22;19.88;;;1.40;99.90;;;;;;5014907;28;20026;-72
2020/12/19 04:54:10;;;;;;;30.80;19.10;;;1.50;99.90;;;;;;5014640;28;20026;-73
2020/12/19 04:56:37;;;;;;;30.08;18.17;;;1.40;99.90;;;;;;5015298;28;20487;-72
2020/12/19 04:59:04;;;;;;;33.45;19.23;;;1.30;99.90;;;;;;5030967;28;20072;-72
2020/12/19 05:01:30;;;;;;;29.45;18.17;;;1.40;99.90;;;;;;5031686;28;20064;-72
2020/12/19 05:03:55;;;;;;;26.08;17.15;;;1.30;99.90;;;;;;5031763;28;20029;-73
2020/12/19 05:06:26;;;;;;;28.00;17.40;;;1.30;99.90;;;;;;5021603;28;20049;-71
2020/12/19 05:08:53;;;;;;;28.52;18.35;;;1.20;99.90;;;;;;5013794;28;20084;-71
2020/12/19 05:11:19;;;;;;;28.92;18.45;;;1.20;99.90;;;;;;5028411;28;20088;-71
2020/12/19 05:13:46;;;;;;;31.35;20.13;;;1.20;99.90;;;;;;5032948;28;20047;-71
2020/12/19 05:16:14;;;;;;;32.47;19.67;;;1.20;99.90;;;;;;5033831;28;20569;-73
2020/12/19 05:18:40;;;;;;;27.55;18.73;;;1.20;99.90;;;;;;5033665;28;20017;-71
2020/12/19 05:21:08;;;;;;;27.67;18.20;;;1.20;99.90;;;;;;5033587;28;20026;-71
2020/12/19 05:23:42;;;;;;;29.33;18.20;;;1.20;99.90;;;;;;5031548;28;20021;-72
2020/12/19 05:26:10;;;;;;;27.13;17.35;;;1.20;99.90;;;;;;5033524;28;20026;-71
2020/12/19 05:28:39;;;;;;;22.90;15.73;;;1.10;99.90;;;;;;5030819;28;20025;-72
2020/12/19 05:31:05;;;;;;;27.42;16.67;;;1.10;99.90;;;;;;5022331;28;20028;-71
2020/12/19 05:33:43;;;;;;;28.40;18.23;;;1.10;99.90;;;;;;5037309;28;20021;-72
2020/12/19 05:36:20;;;;;;;28.42;19.63;;;1.10;99.90;;;;;;5039962;28;20021;-72
2020/12/19 05:38:47;;;;;;;39.20;24.23;;;1.10;99.90;;;;;;5035097;28;20105;-72
2020/12/19 05:41:22;;;;;;;36.63;22.95;;;1.20;99.90;;;;;;5032993;28;20033;-73
2020/12/19 05:43:51;;;;;;;38.53;24.50;;;1.10;99.90;;;;;;5034632;28;20029;-72
2020/12/19 05:46:27;;;;;;;35.33;23.60;;;1.00;99.90;;;;;;5037719;28;20026;-71
2020/12/19 05:48:53;;;;;;;32.45;22.20;;;1.00;99.90;;;;;;5037231;28;20056;-72
2020/12/19 05:51:19;;;;;;;33.55;23.35;;;1.00;99.90;;;;;;5036487;28;20032;-72
2020/12/19 05:53:48;;;;;;;38.35;24.83;;;0.90;99.90;;;;;;5035740;28;20029;-73
2020/12/19 05:56:14;;;;;;;45.63;26.88;;;0.80;99.90;;;;;;5037308;28;20474;-70
2020/12/19 05:58:43;;;;;;;67.72;29.85;;;0.90;99.90;;;;;;5033929;28;20021;-71
2020/12/19 06:01:09;;;;;;;40.60;25.50;;;1.00;99.90;;;;;;5034503;28;20018;-73
2020/12/19 06:03:39;;;;;;;35.33;23.58;;;0.90;99.90;;;;;;5035892;28;20022;-72
2020/12/19 06:06:05;;;;;;;35.22;22.83;;;0.90;99.90;;;;;;5036783;28;20546;-72
2020/12/19 06:08:31;;;;;;;33.92;22.23;;;0.90;99.90;;;;;;5036848;28;20022;-73
2020/12/19 06:10:57;;;;;;;38.90;20.65;;;0.90;99.90;;;;;;5035643;28;20025;-72
2020/12/19 06:13:26;;;;;;;37.67;21.88;;;0.80;99.90;;;;;;5035578;28;20049;-70
2020/12/19 06:16:16;;;;;;;36.05;21.92;;;0.80;99.90;;;;;;5034832;28;20430;-71
2020/12/19 06:19:02;;;;;;;29.92;20.58;;;0.80;99.90;;;;;;5035778;28;20025;-72
2020/12/19 06:21:28;;;;;;;39.20;24.10;;;0.80;99.90;;;;;;5036358;28;20400;-72
2020/12/19 06:23:54;;;;;;;38.67;24.25;;;0.70;99.90;;;;;;5038268;28;20029;-73
2020/12/19 06:26:34;;;;;;;36.85;24.15;;;0.80;99.90;;;;;;5036879;28;20040;-71
2020/12/19 06:29:02;;;;;;;39.08;23.85;;;0.70;99.90;;;;;;5037148;28;20052;-70
2020/12/19 06:31:27;;;;;;;37.90;22.73;;;0.70;99.90;;;;;;5038988;28;20036;-71
2020/12/19 06:33:54;;;;;;;35.55;23.00;;;0.80;99.90;;;;;;5045280;28;20021;-71
2020/12/19 06:36:26;;;;;;;39.17;24.23;;;0.70;99.90;;;;;;5048174;28;20029;-71
2020/12/19 06:39:07;;;;;;;43.20;24.75;;;0.60;99.90;;;;;;5047906;28;20021;-71
2020/12/19 06:41:48;;;;;;;39.42;24.15;;;0.70;99.90;;;;;;5044301;28;20037;-71
2020/12/19 06:44:19;;;;;;;37.60;23.90;;;0.60;99.90;;;;;;5049589;28;20029;-72
2020/12/19 06:46:45;;;;;;;42.13;24.63;;;0.70;99.90;;;;;;5050136;28;20260;-70
2020/12/19 06:49:23;;;;;;;37.75;23.92;;;0.70;99.90;;;;;;5033761;28;20021;-71
2020/12/19 06:51:59;;;;;;;38.88;23.85;;;0.70;99.90;;;;;;5035690;28;20022;-71
2020/12/19 06:54:38;;;;;;;37.35;23.67;;;0.80;99.90;;;;;;5035072;28;20026;-72
2020/12/19 06:57:06;;;;;;;32.65;22.08;;;0.80;99.90;;;;;;5031744;28;20056;-71
2020/12/19 06:59:34;;;;;;;35.65;20.90;;;0.80;99.90;;;;;;5032800;28;20105;-71
2020/12/19 07:02:18;;;;;;;35.45;21.33;;;0.80;99.90;;;;;;5034143;28;20028;-71
2020/12/19 07:04:45;;;;;;;31.50;20.77;;;0.80;99.90;;;;;;5033632;28;20026;-70
2020/12/19 07:07:14;;;;;;;31.00;21.15;;;0.90;99.90;;;;;;5033627;28;20017;-70
2020/12/19 07:09:41;;;;;;;28.88;19.25;;;1.00;99.90;;;;;;5032864;28;20021;-70
2020/12/19 07:12:39;;;;;;;28.52;18.65;;;1.10;99.90;;;;;;5033622;28;20771;-70
2020/12/19 07:15:10;;;;;;;27.17;17.55;;;1.00;99.90;;;;;;5034336;28;20053;-69
2020/12/19 07:17:46;;;;;;;21.88;16.45;;;1.50;99.90;;;;;;5036753;28;20024;-71
2020/12/19 07:20:12;;;;;;;20.98;14.43;;;1.40;99.90;;;;;;5039955;28;20026;-73
2020/12/19 07:22:38;;;;;;;23.95;15.40;;;1.40;99.90;;;;;;5039073;28;20026;-71
2020/12/19 07:25:04;;;;;;;22.70;15.23;;;1.30;99.90;;;;;;5034187;28;20387;-75
2020/12/19 07:27:30;;;;;;;24.83;15.75;;;1.20;99.90;;;;;;5033729;28;20032;-76
2020/12/19 07:30:00;;;;;;;30.17;18.02;;;1.20;99.90;;;;;;5038961;28;20061;-76
2020/12/19 07:32:27;;;;;;;23.00;16.50;;;1.10;99.90;;;;;;5032652;28;20057;-76
2020/12/19 07:34:57;;;;;;;25.67;16.23;;;1.10;99.90;;;;;;5031594;28;20022;-69
2020/12/19 07:37:23;;;;;;;28.75;20.48;;;1.10;99.90;;;;;;5032874;28;20079;-75
2020/12/19 07:39:49;;;;;;;32.53;20.58;;;1.20;99.90;;;;;;5031880;28;20045;-74
2020/12/19 07:42:15;;;;;;;30.27;21.23;;;1.20;99.90;;;;;;5031094;28;20026;-74
2020/12/19 07:44:41;;;;;;;30.15;21.58;;;1.20;99.90;;;;;;5030914;28;20030;-75
2020/12/19 07:47:12;;;;;;;34.53;22.88;;;1.20;99.90;;;;;;5031501;28;20515;-76
2020/12/19 07:49:45;;;;;;;30.83;21.40;;;1.10;99.90;;;;;;5031376;28;20514;-73
2020/12/19 07:52:25;;;;;;;31.30;21.30;;;1.00;99.90;;;;;;5031146;28;20394;-70
2020/12/19 07:55:04;;;;;;;27.75;19.08;;;0.90;99.90;;;;;;5032834;28;20499;-72
2020/12/19 07:57:31;;;;;;;26.35;20.73;;;0.90;99.90;;;;;;5035340;28;20399;-72
2020/12/19 07:59:58;;;;;;;28.20;20.38;;;1.00;99.90;;;;;;5035155;28;20025;-75
2020/12/19 08:02:24;;;;;;;30.52;19.17;;;1.00;99.90;;;;;;5033540;28;20029;-74
2020/12/19 08:04:54;;;;;;;27.42;19.13;;;1.10;99.90;;;;;;5034037;28;20025;-73
2020/12/19 08:07:22;;;;;;;26.85;18.52;;;1.20;99.90;;;;;;5035173;28;20029;-75
2020/12/19 08:09:48;;;;;;;25.40;18.73;;;1.40;99.90;;;;;;5034346;28;20491;-71
2020/12/19 08:12:14;;;;;;;25.70;18.83;;;1.70;99.90;;;;;;5034027;28;20040;-70
2020/12/19 08:14:41;;;;;;;23.83;18.10;;;2.00;99.90;;;;;;5033122;28;20099;-71
2020/12/19 08:17:14;;;;;;;22.98;17.67;;;2.50;99.90;;;;;;5034020;28;20072;-70
2020/12/19 08:19:44;;;;;;;18.25;14.93;;;3.10;99.90;;;;;;5034366;28;20041;-71
2020/12/19 08:22:11;;;;;;;18.67;14.60;;;3.90;99.90;;;;;;5030744;28;20040;-71
2020/12/19 08:24:37;;;;;;;18.00;13.55;;;4.90;99.90;;;;;;5025450;28;20037;-69
2020/12/19 08:27:25;;;;;;;15.88;11.88;;;5.70;99.90;;;;;;5013896;28;20030;-70
2020/12/19 08:30:16;;;;;;;13.27;11.10;;;6.60;99.90;;;;;;5014115;28;20018;-70
2020/12/19 08:32:59;;;;;;;13.98;10.38;;;7.40;99.90;;;;;;5013064;28;20037;-70
2020/12/19 08:35:26;;;;;;;12.77;10.13;;;7.60;99.90;;;;;;5013893;28;20518;-73
2020/12/19 08:38:02;;;;;;;11.40;10.10;;;7.40;99.90;;;;;;5022952;28;20056;-69
2020/12/19 08:40:33;;;;;;;11.32;9.63;;;7.00;99.90;;;;;;5029181;28;20018;-73
2020/12/19 08:42:58;;;;;;;11.93;10.30;;;6.70;99.90;;;;;;5033228;28;20025;-73
2020/12/19 08:45:27;;;;;;;12.13;10.82;;;6.80;99.90;;;;;;5031020;28;20079;-72
2020/12/19 08:48:06;;;;;;;13.32;11.48;;;7.00;99.90;;;;;;5028993;28;20035;-70
2020/12/19 08:50:37;;;;;;;15.13;11.65;;;6.80;99.90;;;;;;5015075;28;20503;-71
2020/12/19 08:53:08;;;;;;;13.25;11.10;;;6.60;99.90;;;;;;5013962;28;20038;-68
2020/12/19 08:55:34;;;;;;;13.82;10.45;;;6.30;99.90;;;;;;5022681;28;20052;-72
2020/12/19 08:58:00;;;;;;;13.18;10.45;;;6.20;99.90;;;;;;5018128;28;20457;-71
2020/12/19 09:00:35;;;;;;;12.55;10.40;;;6.20;99.90;;;;;;5014340;28;20088;-69
2020/12/19 09:03:09;;;;;;;11.20;9.43;;;6.30;99.90;;;;;;5014320;28;20535;-69
2020/12/19 09:05:37;;;;;;;13.13;9.60;;;6.20;99.90;;;;;;5013950;28;20022;-70
2020/12/19 09:08:03;;;;;;;11.68;10.00;;;6.30;99.90;;;;;;5013411;28;20759;-70
2020/12/19 09:10:31;;;;;;;14.90;11.32;;;6.10;99.90;;;;;;5022875;28;20041;-69
2020/12/19 09:13:09;;;;;;;13.60;11.25;;;6.10;99.90;;;;;;5023907;28;20391;-69
2020/12/19 09:15:36;;;;;;;15.40;11.68;;;5.90;99.90;;;;;;5012537;28;20033;-69
2020/12/19 09:18:12;;;;;;;18.05;12.27;;;7.00;99.90;;;;;;5014433;28;20508;-69
2020/12/19 09:20:38;;;;;;;17.08;11.32;;;8.10;99.90;;;;;;5013655;28;20075;-71
2020/12/19 09:23:05;;;;;;;14.35;10.95;;;8.50;99.90;;;;;;5021867;28;20411;-71
2020/12/19 09:25:32;;;;;;;13.50;10.80;;;8.20;99.90;;;;;;5028414;28;20021;-69
2020/12/19 09:27:58;;;;;;;13.32;11.05;;;8.30;99.90;;;;;;5033095;28;20399;-71
2020/12/19 09:30:24;;;;;;;12.75;11.27;;;8.90;99.90;;;;;;5033084;28;20095;-69
2020/12/19 09:32:49;;;;;;;13.13;11.05;;;8.90;99.90;;;;;;5032654;28;20496;-72
2020/12/19 09:35:15;;;;;;;13.23;10.00;;;10.00;99.90;;;;;;5033032;28;20017;-70
2020/12/19 09:37:40;;;;;;;10.43;9.43;;;12.00;99.90;;;;;;5033110;28;20033;-70
2020/12/19 09:40:06;;;;;;;10.25;8.90;;;13.60;99.90;;;;;;5030433;28;20033;-70
2020/12/19 09:42:32;;;;;;;10.45;9.40;;;15.50;95.10;;;;;;5026639;28;20046;-71
2020/12/19 09:44:57;;;;;;;10.15;9.13;;;16.00;91.90;;;;;;5031588;28;20060;-71
2020/12/19 09:47:23;;;;;;;10.68;9.60;;;17.50;89.10;;;;;;5021386;28;20152;-70
2020/12/19 09:49:48;;;;;;;9.77;8.82;;;18.20;80.40;;;;;;5016694;28;20065;-70
2020/12/19 09:52:14;;;;;;;10.40;8.85;;;18.80;76.30;;;;;;5023135;28;20033;-70
2020/12/19 09:54:40;;;;;;;9.70;8.80;;;18.60;73.00;;;;;;5028997;28;20069;-70
2020/12/19 09:57:05;;;;;;;9.93;9.00;;;18.60;74.40;;;;;;5012358;28;20099;-69
2020/12/19 09:59:31;;;;;;;11.07;9.30;;;19.20;71.90;;;;;;5013071;28;20579;-69
2020/12/19 10:01:56;;;;;;;10.65;8.85;;;18.20;72.60;;;;;;5013259;28;20018;-68
2020/12/19 10:04:22;;;;;;;9.68;8.57;;;18.30;73.70;;;;;;5012395;28;20026;-70
2020/12/19 10:06:51;;;;;;;9.00;8.10;;;18.10;73.20;;;;;;5012595;28;20076;-70
2020/12/19 10:09:17;;;;;;;8.80;7.90;;;18.60;74.10;;;;;;5013165;28;20084;-69
2020/12/19 10:11:43;;;;;;;9.07;8.27;;;18.80;72.50;;;;;;5013239;28;20037;-70
2020/12/19 10:14:09;;;;;;;14.20;7.95;;;18.80;70.70;;;;;;5012375;28;20026;-70
2020/12/19 10:16:35;;;;;;;12.18;8.82;;;19.60;70.20;;;;;;5013375;28;20026;-69
2020/12/19 10:19:01;;;;;;;8.70;7.90;;;21.00;66.60;;;;;;5013440;28;20032;-70
2020/12/19 10:21:27;;;;;;;7.97;7.28;;;21.80;63.20;;;;;;5016335;28;20032;-70
2020/12/19 10:23:53;;;;;;;11.02;7.90;;;22.40;61.40;;;;;;5032352;28;20087;-69
2020/12/19 10:26:20;;;;;;;8.57;7.60;;;22.80;58.40;;;;;;5033063;28;20049;-69
2020/12/19 10:28:46;;;;;;;8.65;7.85;;;22.70;57.80;;;;;;5033786;28;20022;-69
2020/12/19 10:31:11;;;;;;;8.52;7.72;;;22.80;56.80;;;;;;5033451;28;20029;-69
2020/12/19 10:33:37;;;;;;;8.77;7.97;;;23.10;56.50;;;;;;5033505;28;20105;-70
2020/12/19 10:36:03;;;;;;;7.72;6.93;;;24.20;55.80;;;;;;5033377;28;20053;-69
2020/12/19 10:38:28;;;;;;;7.68;6.85;;;24.90;53.10;;;;;;5052273;22;20602;-66
2020/12/19 10:40:54;;;;;;;9.95;7.03;;;23.50;54.40;;;;;;5071274;28;20024;-67
2020/12/19 10:43:20;;;;;;;6.68;6.15;;;24.60;52.40;;;;;;5059461;28;20386;-67
2020/12/19 10:45:46;;;;;;;7.78;6.53;;;24.30;51.00;;;;;;5051813;28;20090;-67
2020/12/19 10:48:12;;;;;;;7.43;6.72;;;24.00;53.30;;;;;;5052510;28;20025;-68
2020/12/19 10:50:37;;;;;;;6.35;5.85;;;24.30;52.40;;;;;;5031443;28;20025;-68
2020/12/19 10:53:03;;;;;;;7.30;6.60;;;25.00;52.10;;;;;;5031246;28;20033;-69
2020/12/19 10:55:28;;;;;;;7.10;6.40;;;25.40;50.70;;;;;;5034859;28;20104;-67
2020/12/19 10:57:54;;;;;;;7.32;6.60;;;25.20;50.90;;;;;;5051378;28;20021;-67
2020/12/19 11:00:20;;;;;;;7.13;6.47;;;25.70;49.40;;;;;;5051665;28;20462;-67
2020/12/19 11:02:45;;;;;;;6.72;6.13;;;26.00;49.00;;;;;;5051653;28;20379;-67
2020/12/19 11:05:11;;;;;;;7.07;6.45;;;26.50;48.10;;;;;;5052048;28;20025;-66
2020/12/19 11:07:37;;;;;;;9.50;7.30;;;24.10;50.40;;;;;;5055107;28;20021;-67
2020/12/19 11:10:03;;;;;;;6.95;6.35;;;25.20;50.20;;;;;;5052422;28;20025;-67
2020/12/19 11:12:29;;;;;;;7.20;6.50;;;25.80;49.60;;;;;;5052370;28;20060;-67
2020/12/19 11:14:54;;;;;;;9.23;5.95;;;25.70;49.50;;;;;;5051265;28;20025;-67
2020/12/19 11:17:20;;;;;;;6.07;5.47;;;26.10;48.10;;;;;;5051884;28;20049;-67
2020/12/19 11:19:46;;;;;;;7.35;6.55;;;26.30;48.20;;;;;;5051828;28;20453;-69
2020/12/19 11:22:12;;;;;;;6.95;6.28;;;26.70;48.80;;;;;;5050826;28;20028;-71
2020/12/19 11:24:37;;;;;;;8.00;6.32;;;27.20;47.30;;;;;;5048281;28;20020;-71
2020/12/19 11:27:03;;;;;;;7.10;6.40;;;27.80;46.50;;;;;;5054985;28;20104;-71
2020/12/19 11:29:29;;;;;;;6.88;6.28;;;28.40;45.90;;;;;;5040825;28;20501;-71
2020/12/19 11:31:54;;;;;;;6.57;5.90;;;28.50;44.80;;;;;;5037881;28;20060;-69
2020/12/19 11:34:20;;;;;;;6.97;6.30;;;28.40;45.00;;;;;;5037857;28;20027;-71
2020/12/19 11:36:46;;;;;;;7.22;5.72;;;27.90;44.90;;;;;;5040210;28;20101;-71
2020/12/19 11:39:13;;;;;;;8.70;5.57;;;28.40;45.00;;;;;;5057576;28;20125;-73
2020/12/19 11:41:41;;;;;;;6.78;6.07;;;28.60;44.10;;;;;;5062742;28;20116;-74
2020/12/19 11:44:08;;;;;;;7.55;6.80;;;28.80;43.40;;;;;;5062804;28;20189;-73
2020/12/19 11:46:34;;;;;;;7.32;6.45;;;28.60;43.20;;;;;;5061362;28;20040;-73
2020/12/19 11:49:00;;;;;;;7.82;6.32;;;25.10;46.30;;;;;;5052857;28;20025;-73
2020/12/19 11:51:27;;;;;;;8.98;5.90;;;24.40;49.90;;;;;;5062556;28;20084;-74
2020/12/19 11:53:53;;;;;;;6.53;5.45;;;24.20;50.50;;;;;;5059222;28;20498;-73
2020/12/19 11:56:18;;;;;;;5.80;5.22;;;22.40;53.70;;;;;;5061271;28;20040;-74
2020/12/19 11:58:44;;;;;;;10.07;5.63;;;21.80;54.70;;;;;;5060334;28;20053;-73
2020/12/19 12:01:10;;;;;;;6.40;5.85;;;21.60;55.60;;;;;;5076436;28;20047;-74
2020/12/19 12:03:38;;;;;;;6.88;5.85;;;21.70;55.80;;;;;;5071806;28;20081;-74
2020/12/19 12:06:04;;;;;;;7.82;6.20;;;23.90;53.00;;;;;;5060889;28;20025;-73
2020/12/19 12:08:30;;;;;;;6.53;5.93;;;24.30;51.00;;;;;;5056078;28;20029;-73
2020/12/19 12:10:55;;;;;;;7.72;5.68;;;24.10;50.30;;;;;;5054559;28;20501;-72
2020/12/19 12:13:21;;;;;;;14.48;6.25;;;23.10;52.40;;;;;;5036033;28;20036;-73
2020/12/19 12:15:47;;;;;;;6.95;6.22;;;22.70;53.90;;;;;;5034382;28;20499;-72
2020/12/19 12:18:12;;;;;;;6.43;5.43;;;19.90;59.90;;;;;;5034369;28;20368;-73
2020/12/19 12:20:38;;;;;;;7.13;6.43;;;19.50;61.30;;;;;;5033210;28;20744;-73
2020/12/19 12:23:04;;;;;;;6.50;5.90;;;19.00;63.90;;;;;;5033726;28;20467;-73
2020/12/19 12:25:29;;;;;;;8.45;6.55;;;18.60;64.90;;;;;;5034304;28;20057;-72
2020/12/19 12:27:55;;;;;;;9.75;6.50;;;18.80;65.80;;;;;;5034750;28;20399;-74
2020/12/19 12:30:21;;;;;;;7.60;6.38;;;18.30;65.10;;;;;;5034863;28;20395;-73
2020/12/19 12:32:46;;;;;;;6.93;6.18;;;17.70;68.10;;;;;;5036628;28;20059;-74
2020/12/19 12:35:12;;;;;;;8.77;6.50;;;19.10;66.60;;;;;;5046808;28;20028;-74
2020/12/19 12:37:38;;;;;;;8.10;6.60;;;20.30;63.20;;;;;;5046964;28;20021;-73
2020/12/19 12:40:04;;;;;;;7.88;5.72;;;22.00;58.40;;;;;;5053483;28;20079;-72